Time;durP1;ratioP1;P1;durP2;ratioP2;P2;SDS_P1;SDS_P2;PMS_P1;PMS_P2;Temp;Humidity;BMP_temperature;BMP_pressure;BME280_temperature;BME280_humidity;BME280_pressure;Samples;Min_cycle;Max_cycle;Signal;HPM_P1;HPM_P2
2022/09/16 00:00:26;;;;;;;0.80;0.40;;;20.50;99.90;;;;;;5072021;28;20232;-78
2022/09/16 00:02:57;;;;;;;0.95;0.60;;;20.60;99.90;;;;;;5072385;28;20231;-77
2022/09/16 00:05:28;;;;;;;0.70;0.68;;;20.60;99.90;;;;;;5083782;28;20199;-78
2022/09/16 00:07:59;;;;;;;0.60;0.50;;;20.70;99.90;;;;;;5092297;28;20196;-78
2022/09/16 00:10:29;;;;;;;3.15;0.70;;;20.80;99.90;;;;;;5091226;28;20230;-77
2022/09/16 00:13:02;;;;;;;0.80;0.60;;;20.90;99.90;;;;;;5073148;28;20666;-77
2022/09/16 00:15:33;;;;;;;0.80;0.57;;;20.90;99.90;;;;;;5072279;28;20196;-77
2022/09/16 00:18:04;;;;;;;1.75;0.98;;;21.00;99.90;;;;;;5071957;28;20200;-77
2022/09/16 00:20:35;;;;;;;0.70;0.70;;;21.00;99.90;;;;;;5072077;28;20196;-78
2022/09/16 00:23:06;;;;;;;1.00;0.55;;;21.10;99.90;;;;;;5088887;28;20356;-78
2022/09/16 00:25:37;;;;;;;2.17;0.65;;;21.10;99.90;;;;;;5092524;28;20249;-78
2022/09/16 00:28:09;;;;;;;2.95;0.80;;;21.20;99.90;;;;;;5093055;28;20694;-78
2022/09/16 00:30:40;;;;;;;1.88;0.70;;;21.30;99.90;;;;;;5098064;28;20314;-77
2022/09/16 00:33:12;;;;;;;0.85;0.55;;;21.40;99.90;;;;;;5092270;28;20564;-78
2022/09/16 00:35:43;;;;;;;1.10;0.50;;;21.50;99.90;;;;;;5092231;28;20199;-78
2022/09/16 00:38:14;;;;;;;1.00;0.68;;;21.50;99.90;;;;;;5090461;28;20269;-79
2022/09/16 00:40:48;;;;;;;0.70;0.60;;;21.50;99.90;;;;;;5086050;28;20716;-79
2022/09/16 00:43:21;;;;;;;3.60;0.80;;;21.50;99.90;;;;;;5091141;28;20665;-79
2022/09/16 00:45:58;;;;;;;0.70;0.60;;;21.60;99.90;;;;;;5091954;28;20195;-80
2022/09/16 00:48:31;;;;;;;1.45;0.52;;;21.60;99.90;;;;;;5092306;28;20256;-79
2022/09/16 00:51:06;;;;;;;1.83;0.90;;;21.70;99.90;;;;;;5091383;28;20227;-79
2022/09/16 00:53:42;;;;;;;2.42;0.80;;;21.90;99.90;;;;;;5091382;28;20206;-80
2022/09/16 00:56:14;;;;;;;1.30;0.63;;;21.80;99.90;;;;;;5082212;28;20673;-80
2022/09/16 00:58:52;;;;;;;0.63;0.55;;;21.80;99.90;;;;;;5071055;28;20192;-80
2022/09/16 01:01:24;;;;;;;3.38;0.80;;;21.70;99.90;;;;;;5071113;28;20735;-79
2022/09/16 01:03:56;;;;;;;1.60;0.70;;;21.80;99.90;;;;;;5087268;28;20256;-80
2022/09/16 01:06:28;;;;;;;1.70;0.60;;;21.90;99.90;;;;;;5091522;28;20206;-79
2022/09/16 01:09:00;;;;;;;1.65;0.70;;;22.10;99.90;;;;;;5091494;28;20191;-79
2022/09/16 01:11:30;;;;;;;1.88;0.65;;;22.20;99.90;;;;;;5092042;28;20754;-80
2022/09/16 01:16:57;;;;;;;1.33;0.70;;;22.20;99.90;;;;;;5090140;28;20210;-80
2022/09/16 01:19:52;;;;;;;2.50;0.55;;;22.10;99.90;;;;;;5090486;28;20645;-79
2022/09/16 01:22:38;;;;;;;1.10;0.60;;;22.10;99.90;;;;;;5090137;28;20194;-80
2022/09/16 01:25:20;;;;;;;0.93;0.70;;;22.10;99.90;;;;;;5090988;28;20719;-80
2022/09/16 01:28:22;;;;;;;0.80;0.60;;;22.30;99.90;;;;;;5090929;28;20432;-80
2022/09/16 01:31:02;;;;;;;1.48;0.70;;;22.30;99.90;;;;;;5075598;28;20292;-80
2022/09/16 01:33:42;;;;;;;0.60;0.60;;;22.30;99.90;;;;;;5071174;28;20198;-80
2022/09/16 01:36:26;;;;;;;1.10;0.60;;;22.50;99.90;;;;;;5070698;28;20196;-80
2022/09/16 01:39:09;;;;;;;1.58;0.52;;;22.50;99.90;;;;;;5082199;28;20195;-80
2022/09/16 01:41:54;;;;;;;0.70;0.50;;;22.60;99.90;;;;;;5090795;28;20203;-80
2022/09/16 01:44:29;;;;;;;1.65;0.60;;;22.70;99.90;;;;;;5090651;28;20199;-80
2022/09/16 01:47:07;;;;;;;1.40;0.70;;;22.70;99.90;;;;;;5083453;28;20268;-80
2022/09/16 01:49:45;;;;;;;0.68;0.57;;;22.80;99.90;;;;;;5070402;28;20290;-79
2022/09/16 01:52:25;;;;;;;1.63;0.50;;;22.80;99.90;;;;;;5087906;28;20231;-79
2022/09/16 01:55:03;;;;;;;1.42;0.70;;;22.90;99.90;;;;;;5090807;28;20203;-80
2022/09/16 01:57:38;;;;;;;2.13;0.65;;;22.90;99.90;;;;;;5090478;28;20289;-79
2022/09/16 02:00:12;;;;;;;0.88;0.35;;;23.00;99.90;;;;;;5090551;28;20226;-79
2022/09/16 02:02:50;;;;;;;0.63;0.50;;;23.00;99.90;;;;;;5090364;28;20207;-79
2022/09/16 02:05:26;;;;;;;1.02;0.50;;;23.10;99.90;;;;;;5071752;28;20679;-80
2022/09/16 02:08:01;;;;;;;2.50;0.60;;;23.20;99.90;;;;;;5070455;28;20201;-80
2022/09/16 02:10:36;;;;;;;1.48;0.60;;;23.10;99.90;;;;;;5070216;28;20196;-80
2022/09/16 02:13:12;;;;;;;1.92;1.00;;;22.90;99.90;;;;;;5070298;28;20207;-79
2022/09/16 02:15:45;;;;;;;1.50;0.60;;;23.00;99.90;;;;;;5070383;28;20278;-80
2022/09/16 02:18:25;;;;;;;1.55;0.70;;;22.90;99.90;;;;;;5069923;28;20196;-80
2022/09/16 02:20:59;;;;;;;1.00;0.57;;;23.10;99.90;;;;;;5080465;28;20195;-79
2022/09/16 02:23:34;;;;;;;1.00;0.70;;;23.40;99.90;;;;;;5075436;28;20222;-79
2022/09/16 02:26:07;;;;;;;2.60;0.70;;;23.60;99.90;;;;;;5072871;28;20290;-78
2022/09/16 02:28:42;;;;;;;1.58;0.77;;;23.80;99.90;;;;;;5069966;28;20253;-79
2022/09/16 02:31:15;;;;;;;1.15;0.60;;;23.90;99.90;;;;;;5069968;28;20219;-78
2022/09/16 02:33:53;;;;;;;0.50;0.50;;;24.00;99.20;;;;;;5072810;28;20203;-79
2022/09/16 02:36:25;;;;;;;1.27;0.45;;;24.10;97.20;;;;;;5075520;28;20265;-80
2022/09/16 02:38:59;;;;;;;1.05;0.60;;;24.00;97.00;;;;;;5078939;28;20658;-79
2022/09/16 02:41:30;;;;;;;4.55;0.77;;;23.80;93.30;;;;;;5094528;28;20214;-79
2022/09/16 02:44:00;;;;;;;1.25;0.63;;;23.50;96.50;;;;;;5094607;28;20199;-79
2022/09/16 02:46:39;;;;;;;2.65;0.55;;;23.30;97.30;;;;;;5094599;28;20222;-79
2022/09/16 02:49:20;;;;;;;2.80;0.68;;;23.20;97.30;;;;;;5093997;28;20199;-79
2022/09/16 02:51:59;;;;;;;0.77;0.60;;;23.40;93.80;;;;;;5093809;28;20327;-79
2022/09/16 02:54:37;;;;;;;2.00;0.60;;;23.40;94.50;;;;;;5091258;28;20195;-79
2022/09/16 02:57:08;;;;;;;0.60;0.60;;;23.30;95.40;;;;;;5084891;28;20192;-79
2022/09/16 02:59:41;;;;;;;3.22;0.60;;;23.50;92.50;;;;;;5090376;28;20235;-78
2022/09/16 03:02:11;;;;;;;2.30;0.55;;;23.70;71.20;;;;;;5087850;28;20249;-79
2022/09/16 03:04:44;;;;;;;1.80;0.57;;;23.90;63.00;;;;;;5102051;28;20183;-79
2022/09/16 03:07:16;;;;;;;1.05;0.60;;;24.10;54.90;;;;;;5095611;28;20199;-79
2022/09/16 03:09:48;;;;;;;1.77;0.40;;;24.10;54.70;;;;;;5095906;28;20195;-79
2022/09/16 03:12:36;;;;;;;0.90;0.57;;;24.40;55.40;;;;;;5089900;28;20709;-79
2022/09/16 03:15:50;;;;;;;2.38;0.63;;;24.50;49.80;;;;;;5094446;28;20612;-80
2022/09/16 03:18:35;;;;;;;2.92;0.50;;;24.60;50.50;;;;;;5095174;28;20195;-79
2022/09/16 03:21:16;;;;;;;0.63;0.30;;;24.70;51.20;;;;;;5094050;28;20223;-81
2022/09/16 03:23:58;;;;;;;2.72;0.65;;;24.80;49.80;;;;;;5093475;28;20222;-81
2022/09/16 03:26:43;;;;;;;1.67;0.50;;;24.80;47.30;;;;;;5094674;28;20217;-81
2022/09/16 03:29:20;;;;;;;1.67;0.52;;;24.90;48.40;;;;;;5084005;28;20223;-81
2022/09/16 03:31:57;;;;;;;3.40;0.52;;;25.00;50.30;;;;;;5073530;28;20234;-81
2022/09/16 03:34:32;;;;;;;1.17;0.75;;;25.00;46.20;;;;;;5073792;28;20206;-81
2022/09/16 03:37:09;;;;;;;1.02;0.50;;;24.90;46.20;;;;;;5094044;28;20210;-80
2022/09/16 03:39:40;;;;;;;0.82;0.40;;;25.00;47.90;;;;;;5093537;28;20240;-80
2022/09/16 03:42:12;;;;;;;1.15;0.70;;;24.90;47.60;;;;;;5093085;28;20199;-79
2022/09/16 03:44:43;;;;;;;1.23;0.50;;;24.90;47.40;;;;;;5091668;28;20278;-79
2022/09/16 03:47:14;;;;;;;1.55;0.60;;;25.00;47.00;;;;;;5092431;28;20195;-79
2022/09/16 03:49:44;;;;;;;1.02;0.60;;;25.10;46.50;;;;;;5093024;28;20680;-79
2022/09/16 03:52:18;;;;;;;2.00;0.95;;;25.10;45.30;;;;;;5092549;28;20219;-78
2022/09/16 03:54:49;;;;;;;1.58;0.57;;;24.90;45.80;;;;;;5092934;28;20202;-78
2022/09/16 03:57:20;;;;;;;1.95;0.85;;;24.80;44.20;;;;;;5093008;28;20229;-79
2022/09/16 03:59:51;;;;;;;1.20;0.52;;;24.60;45.80;;;;;;5093368;28;20223;-78
2022/09/16 04:02:22;;;;;;;0.85;0.50;;;24.60;46.20;;;;;;5083414;28;20715;-79
2022/09/16 04:04:52;;;;;;;2.03;0.65;;;24.50;46.30;;;;;;5092854;28;20566;-78
2022/09/16 04:07:25;;;;;;;2.20;0.50;;;24.50;45.40;;;;;;5092533;28;20203;-79
2022/09/16 04:09:56;;;;;;;1.33;0.35;;;24.40;47.10;;;;;;5092597;28;20207;-79
2022/09/16 04:12:26;;;;;;;1.23;0.50;;;24.50;46.30;;;;;;5092507;28;20276;-78
2022/09/16 04:14:57;;;;;;;2.47;0.75;;;24.50;47.00;;;;;;5092842;28;20191;-79
2022/09/16 04:17:28;;;;;;;1.35;0.50;;;24.40;45.90;;;;;;5092478;28;20521;-79
2022/09/16 04:19:58;;;;;;;0.63;0.50;;;24.20;45.70;;;;;;5079826;28;20199;-78
2022/09/16 04:22:33;;;;;;;0.85;0.50;;;24.20;46.40;;;;;;5092196;28;20207;-79
2022/09/16 04:25:04;;;;;;;1.20;0.70;;;24.20;46.90;;;;;;5092721;28;20714;-78
2022/09/16 04:27:35;;;;;;;1.63;0.30;;;24.10;46.60;;;;;;5092704;28;20411;-79
2022/09/16 04:30:06;;;;;;;1.13;0.50;;;24.20;47.00;;;;;;5092128;28;20256;-78
2022/09/16 04:32:37;;;;;;;1.20;0.60;;;24.30;46.60;;;;;;5092333;28;20276;-78
2022/09/16 04:35:08;;;;;;;2.67;0.68;;;24.30;47.70;;;;;;5084846;28;20253;-79
2022/09/16 04:37:41;;;;;;;1.85;0.50;;;24.30;46.60;;;;;;5084549;28;20611;-79
2022/09/16 04:40:12;;;;;;;0.93;0.35;;;24.30;47.50;;;;;;5091911;28;20199;-79
2022/09/16 04:42:43;;;;;;;2.63;0.70;;;24.30;46.60;;;;;;5091862;28;20191;-79
2022/09/16 04:45:14;;;;;;;2.85;0.73;;;24.40;46.50;;;;;;5091696;28;20697;-79
2022/09/16 04:47:44;;;;;;;2.92;0.80;;;24.50;48.40;;;;;;5092113;28;20230;-79
2022/09/16 04:50:15;;;;;;;1.15;0.43;;;24.60;46.50;;;;;;5092043;28;20282;-80
2022/09/16 04:52:47;;;;;;;1.60;0.50;;;24.70;47.90;;;;;;5081353;28;20229;-80
2022/09/16 04:55:21;;;;;;;1.65;0.52;;;24.70;47.60;;;;;;5089980;28;20265;-79
2022/09/16 04:57:52;;;;;;;1.00;0.60;;;24.70;46.90;;;;;;5091765;28;20249;-80
2022/09/16 05:00:23;;;;;;;2.55;0.50;;;24.70;46.80;;;;;;5091811;28;20280;-79
2022/09/16 05:02:56;;;;;;;1.40;0.65;;;24.60;47.90;;;;;;5092373;28;20360;-80
2022/09/16 05:05:27;;;;;;;2.30;0.52;;;24.60;48.20;;;;;;5091757;28;20299;-79
2022/09/16 05:08:00;;;;;;;2.10;0.70;;;24.70;46.60;;;;;;5090676;28;20195;-78
2022/09/16 05:10:31;;;;;;;2.30;0.80;;;24.70;47.60;;;;;;5088765;28;20570;-78
2022/09/16 05:13:02;;;;;;;2.00;0.40;;;24.80;46.20;;;;;;5072054;28;20250;-79
2022/09/16 05:15:35;;;;;;;1.05;0.50;;;24.90;46.70;;;;;;5071748;28;20196;-79
2022/09/16 05:18:06;;;;;;;2.80;0.57;;;25.00;48.30;;;;;;5071206;28;20204;-79
2022/09/16 05:20:37;;;;;;;1.08;0.60;;;25.00;49.10;;;;;;5070974;28;20200;-79
2022/09/16 05:23:10;;;;;;;0.88;0.50;;;25.10;48.80;;;;;;5071563;28;20202;-79
2022/09/16 05:25:40;;;;;;;1.83;0.40;;;25.20;48.10;;;;;;5072346;28;20188;-79
2022/09/16 05:28:11;;;;;;;1.98;0.70;;;25.30;48.90;;;;;;5080607;28;20199;-79
2022/09/16 05:30:42;;;;;;;2.30;0.70;;;25.50;48.40;;;;;;5091168;28;20298;-79
2022/09/16 05:33:14;;;;;;;1.30;0.50;;;25.60;48.20;;;;;;5090876;28;20223;-78
2022/09/16 05:35:45;;;;;;;1.67;0.60;;;25.50;47.20;;;;;;5091181;28;20198;-78
2022/09/16 05:38:18;;;;;;;1.33;0.55;;;25.50;48.30;;;;;;5090804;28;20559;-79
2022/09/16 05:40:49;;;;;;;1.92;0.70;;;25.60;48.40;;;;;;5089612;28;20780;-78
2022/09/16 05:43:19;;;;;;;2.20;0.60;;;25.50;46.90;;;;;;5090564;28;20706;-78
2022/09/16 05:45:54;;;;;;;1.42;0.60;;;25.50;46.60;;;;;;5076221;28;20594;-79
2022/09/16 05:48:26;;;;;;;1.75;0.50;;;25.40;46.30;;;;;;5070948;28;20192;-79
2022/09/16 05:50:57;;;;;;;2.38;0.47;;;25.30;46.40;;;;;;5070412;28;20211;-79
2022/09/16 05:53:34;;;;;;;3.15;0.63;;;25.30;45.90;;;;;;5087280;28;20218;-78
2022/09/16 05:56:07;;;;;;;1.02;0.40;;;25.10;45.50;;;;;;5092836;28;20199;-80
2022/09/16 05:58:38;;;;;;;0.65;0.43;;;25.10;45.90;;;;;;5091195;28;20203;-79
2022/09/16 06:01:11;;;;;;;2.45;0.55;;;25.10;45.20;;;;;;5091046;28;20195;-80
2022/09/16 06:03:42;;;;;;;0.98;0.50;;;25.10;46.00;;;;;;5070979;28;20260;-79
2022/09/16 06:06:16;;;;;;;1.40;0.60;;;24.90;46.10;;;;;;5070895;28;20204;-80
2022/09/16 06:08:48;;;;;;;2.30;0.63;;;24.80;46.70;;;;;;5070685;28;20210;-80
2022/09/16 06:11:19;;;;;;;1.95;0.50;;;24.90;45.00;;;;;;5081108;28;20248;-80
2022/09/16 06:13:54;;;;;;;2.28;0.55;;;25.00;45.20;;;;;;5090560;28;20712;-80
2022/09/16 06:16:26;;;;;;;1.50;0.60;;;24.70;45.20;;;;;;5090877;28;20669;-80
2022/09/16 06:18:58;;;;;;;2.22;0.55;;;24.70;44.90;;;;;;5090148;28;20318;-80
2022/09/16 06:21:29;;;;;;;1.35;0.45;;;24.90;45.30;;;;;;5091201;28;20254;-81
2022/09/16 06:24:02;;;;;;;1.50;0.52;;;25.30;44.70;;;;;;5091645;28;20203;-81
2022/09/16 06:26:32;;;;;;;2.38;0.52;;;25.50;43.40;;;;;;5091830;28;20282;-80
2022/09/16 06:29:04;;;;;;;3.58;0.60;;;25.50;43.10;;;;;;5079295;28;20196;-80
2022/09/16 06:31:36;;;;;;;1.92;0.60;;;25.70;44.00;;;;;;5079482;28;20199;-81
2022/09/16 06:34:14;;;;;;;1.00;0.70;;;25.90;43.20;;;;;;5091281;28;20253;-81
2022/09/16 06:36:48;;;;;;;1.65;0.50;;;26.10;43.10;;;;;;5080990;28;20200;-80
2022/09/16 06:39:22;;;;;;;1.48;0.65;;;26.30;43.30;;;;;;5071079;28;20218;-79
2022/09/16 06:41:53;;;;;;;1.55;0.60;;;26.30;42.90;;;;;;5071189;28;20254;-81
2022/09/16 06:44:24;;;;;;;0.52;0.40;;;26.40;43.60;;;;;;5070929;28;20196;-80
2022/09/16 06:46:55;;;;;;;1.63;0.68;;;26.20;42.80;;;;;;5071565;28;20196;-80
2022/09/16 06:49:25;;;;;;;1.77;0.60;;;25.90;42.70;;;;;;5071710;28;21022;-80
2022/09/16 06:51:56;;;;;;;1.45;0.60;;;25.80;43.10;;;;;;5073984;28;20240;-81
2022/09/16 06:54:29;;;;;;;2.22;0.60;;;25.80;43.90;;;;;;5091150;28;20235;-80
2022/09/16 06:57:04;;;;;;;1.55;0.80;;;25.90;44.10;;;;;;5091379;28;20196;-81
2022/09/16 06:59:35;;;;;;;1.15;0.50;;;25.80;43.90;;;;;;5087180;28;20265;-80
2022/09/16 07:02:05;;;;;;;4.05;0.77;;;25.50;43.70;;;;;;5071451;28;20254;-79
2022/09/16 07:04:37;;;;;;;2.33;0.60;;;25.20;44.10;;;;;;5070696;28;20610;-80
2022/09/16 07:07:11;;;;;;;4.07;0.85;;;24.90;44.80;;;;;;5069981;28;20215;-77
2022/09/16 07:09:44;;;;;;;2.83;0.85;;;24.60;45.20;;;;;;5074782;28;20260;-78
2022/09/16 07:12:16;;;;;;;2.30;0.80;;;24.30;45.90;;;;;;5090436;28;20196;-78
2022/09/16 07:14:47;;;;;;;1.80;0.80;;;24.10;47.20;;;;;;5090831;28;20199;-79
2022/09/16 07:17:17;;;;;;;1.60;0.68;;;24.00;46.80;;;;;;5089271;28;20276;-80
2022/09/16 07:19:48;;;;;;;3.85;0.93;;;23.80;47.50;;;;;;5091376;28;20642;-79
2022/09/16 07:22:19;;;;;;;2.90;1.00;;;23.70;48.00;;;;;;5093725;28;20562;-79
2022/09/16 07:24:51;;;;;;;1.02;0.60;;;23.50;47.60;;;;;;5093964;28;20195;-79
2022/09/16 07:27:22;;;;;;;2.03;0.88;;;23.30;48.40;;;;;;5082971;28;20200;-79
2022/09/16 07:29:52;;;;;;;2.10;0.88;;;23.20;48.80;;;;;;5079017;28;20237;-79
2022/09/16 07:32:23;;;;;;;2.40;0.80;;;23.20;49.10;;;;;;5093506;28;20723;-79
2022/09/16 07:34:54;;;;;;;1.90;0.80;;;23.00;49.40;;;;;;5084404;28;20600;-80
2022/09/16 07:37:25;;;;;;;2.60;0.73;;;22.90;49.60;;;;;;5073131;28;20204;-79
2022/09/16 07:39:57;;;;;;;2.60;0.80;;;22.80;50.00;;;;;;5073322;28;20196;-79
2022/09/16 07:42:30;;;;;;;3.22;1.00;;;22.70;50.10;;;;;;5072916;28;20253;-79
2022/09/16 07:45:00;;;;;;;2.13;0.75;;;22.60;50.90;;;;;;5089216;28;20225;-79
2022/09/16 07:47:31;;;;;;;1.65;0.90;;;22.50;52.00;;;;;;5092495;28;20720;-79
2022/09/16 07:50:02;;;;;;;4.95;1.30;;;22.40;51.70;;;;;;5092798;28;20199;-79
2022/09/16 07:52:34;;;;;;;1.10;0.70;;;22.30;51.60;;;;;;5092913;28;20199;-79
2022/09/16 07:55:06;;;;;;;2.78;1.10;;;22.20;52.60;;;;;;5093007;28;20222;-79
2022/09/16 07:57:38;;;;;;;1.45;1.10;;;22.20;53.10;;;;;;5092528;28;20678;-78
2022/09/16 08:00:09;;;;;;;2.67;1.00;;;22.10;53.50;;;;;;5092019;28;20288;-78
2022/09/16 08:02:40;;;;;;;1.17;1.00;;;22.00;53.80;;;;;;5072298;28;20231;-78
2022/09/16 08:05:12;;;;;;;2.75;0.90;;;21.90;54.50;;;;;;5071948;28;20207;-78
2022/09/16 08:07:42;;;;;;;1.98;1.00;;;21.90;55.10;;;;;;5072371;28;20233;-78
2022/09/16 08:10:15;;;;;;;3.13;0.90;;;21.80;56.10;;;;;;5072293;28;20211;-78
2022/09/16 08:12:49;;;;;;;3.58;0.90;;;21.70;56.60;;;;;;5072093;28;20199;-78
2022/09/16 08:15:20;;;;;;;3.22;1.10;;;21.70;57.60;;;;;;5072377;28;20246;-78
2022/09/16 08:17:51;;;;;;;2.03;0.95;;;21.60;58.40;;;;;;5078512;28;20195;-78
2022/09/16 08:20:23;;;;;;;2.00;1.00;;;21.50;59.40;;;;;;5092080;28;20369;-78
2022/09/16 08:22:53;;;;;;;3.25;1.00;;;21.50;60.10;;;;;;5092406;28;20298;-78
2022/09/16 08:25:26;;;;;;;3.58;1.13;;;21.40;60.40;;;;;;5091502;28;20646;-78
2022/09/16 08:27:57;;;;;;;1.23;0.90;;;21.30;62.50;;;;;;5077576;28;20700;-78
2022/09/16 08:30:28;;;;;;;2.30;1.00;;;21.30;66.30;;;;;;5091706;28;20583;-79
2022/09/16 08:33:00;;;;;;;2.30;0.95;;;21.20;67.20;;;;;;5092002;28;20225;-78
2022/09/16 08:35:30;;;;;;;2.50;1.05;;;21.10;70.00;;;;;;5080149;28;20210;-78
2022/09/16 08:38:01;;;;;;;2.15;0.73;;;21.10;70.00;;;;;;5071652;28;20678;-78
2022/09/16 08:40:37;;;;;;;2.05;0.80;;;21.00;71.30;;;;;;5071723;28;20192;-78
2022/09/16 08:43:17;;;;;;;2.35;0.70;;;20.90;73.50;;;;;;5072099;28;20602;-78
2022/09/16 08:45:55;;;;;;;2.67;0.77;;;20.90;73.20;;;;;;5071552;28;20204;-79
2022/09/16 08:48:36;;;;;;;2.22;0.90;;;20.80;73.50;;;;;;5071446;28;20195;-78
2022/09/16 08:51:08;;;;;;;2.83;0.98;;;20.80;75.00;;;;;;5071712;28;20253;-80
2022/09/16 08:53:43;;;;;;;5.10;0.95;;;20.80;76.50;;;;;;5088435;28;20215;-79
2022/09/16 08:56:20;;;;;;;2.05;1.05;;;20.80;78.30;;;;;;5080883;28;20556;-79
2022/09/16 08:58:53;;;;;;;1.77;1.13;;;20.70;79.00;;;;;;5089798;28;20202;-79
2022/09/16 09:01:30;;;;;;;2.33;1.42;;;20.70;79.80;;;;;;5091329;28;20199;-80
2022/09/16 09:04:01;;;;;;;1.65;0.98;;;20.70;82.00;;;;;;5091260;28;20560;-80
2022/09/16 09:06:49;;;;;;;3.50;1.30;;;20.70;83.20;;;;;;5091655;28;20202;-80
2022/09/16 09:09:36;;;;;;;1.77;1.20;;;20.60;83.40;;;;;;5080620;28;20688;-81
2022/09/16 09:12:15;;;;;;;3.15;1.20;;;20.60;86.50;;;;;;5071548;28;20196;-81
2022/09/16 09:15:02;;;;;;;3.40;1.33;;;20.50;88.40;;;;;;5078904;28;20654;-81
2022/09/16 09:17:44;;;;;;;2.60;1.23;;;20.50;88.40;;;;;;5091641;28;20241;-81
2022/09/16 09:20:30;;;;;;;3.13;1.10;;;20.50;90.00;;;;;;5090829;28;20199;-81
2022/09/16 09:23:13;;;;;;;2.30;1.10;;;20.50;88.60;;;;;;5091412;28;20618;-81
2022/09/16 09:25:52;;;;;;;1.40;0.98;;;20.40;89.10;;;;;;5085483;28;20203;-81
2022/09/16 09:28:50;;;;;;;1.77;0.90;;;20.40;90.70;;;;;;5086063;28;20190;-81
2022/09/16 09:31:29;;;;;;;2.97;1.30;;;20.40;92.40;;;;;;5076136;28;20191;-81
2022/09/16 09:34:08;;;;;;;4.00;1.10;;;20.40;92.40;;;;;;5097910;28;20218;-79
2022/09/16 09:36:53;;;;;;;1.88;1.20;;;20.30;92.00;;;;;;5108502;28;20202;-80
2022/09/16 09:39:46;;;;;;;3.67;1.05;;;20.30;93.00;;;;;;5093107;28;20572;-81
2022/09/16 09:42:22;;;;;;;3.15;1.27;;;20.30;93.60;;;;;;5088739;28;20582;-80
2022/09/16 09:45:02;;;;;;;3.83;1.63;;;20.30;94.30;;;;;;5070692;28;20704;-81
2022/09/16 09:47:40;;;;;;;3.47;1.13;;;20.20;95.70;;;;;;5070837;28;20196;-80
2022/09/16 09:50:21;;;;;;;2.17;1.10;;;20.20;95.40;;;;;;5097313;28;20201;-80
2022/09/16 09:52:59;;;;;;;3.42;1.70;;;20.20;96.00;;;;;;5080336;28;20199;-81
2022/09/16 09:55:33;;;;;;;2.53;1.10;;;20.20;96.40;;;;;;5070185;28;20231;-80
2022/09/16 09:58:23;;;;;;;2.92;1.10;;;20.10;98.00;;;;;;5070526;28;20195;-80
2022/09/16 10:00:58;;;;;;;3.75;0.90;;;20.10;98.00;;;;;;5083423;28;20746;-80
2022/09/16 10:03:32;;;;;;;4.10;1.30;;;20.10;98.40;;;;;;5090402;28;20722;-80
2022/09/16 10:06:03;;;;;;;1.65;1.00;;;20.00;98.50;;;;;;5078545;28;20204;-81
2022/09/16 10:08:44;;;;;;;1.35;0.82;;;20.00;98.30;;;;;;5070626;28;20242;-80
2022/09/16 10:11:20;;;;;;;1.27;0.80;;;20.00;98.40;;;;;;5084221;28;20191;-81
2022/09/16 10:13:52;;;;;;;1.73;0.75;;;20.00;98.50;;;;;;5089842;28;20215;-80
2022/09/16 10:16:28;;;;;;;1.27;0.73;;;19.90;98.40;;;;;;5087911;28;20211;-80
2022/09/16 10:19:03;;;;;;;2.45;1.20;;;19.90;98.10;;;;;;5069806;28;20203;-80
2022/09/16 10:21:47;;;;;;;3.75;0.93;;;19.90;98.70;;;;;;5070513;28;20729;-80
2022/09/16 10:24:34;;;;;;;1.60;0.93;;;19.90;99.20;;;;;;5069926;28;20200;-80
2022/09/16 10:27:20;;;;;;;1.33;1.13;;;19.90;99.90;;;;;;5087056;28;20515;-80
2022/09/16 10:30:03;;;;;;;1.70;1.00;;;19.80;99.90;;;;;;5087297;28;20203;-80
2022/09/16 10:32:41;;;;;;;3.97;1.00;;;19.80;99.90;;;;;;5090422;28;20546;-81
2022/09/16 10:35:17;;;;;;;2.70;1.00;;;19.80;99.90;;;;;;5083035;28;20234;-81
2022/09/16 10:37:54;;;;;;;2.22;1.25;;;19.80;99.90;;;;;;5069877;28;20191;-81
2022/09/16 10:40:26;;;;;;;1.35;0.80;;;19.70;99.90;;;;;;5080598;28;20195;-81
2022/09/16 10:43:00;;;;;;;2.50;0.93;;;19.70;99.90;;;;;;5089786;28;20203;-81
2022/09/16 10:45:33;;;;;;;1.85;1.00;;;19.70;99.90;;;;;;5089543;28;20201;-82
2022/09/16 10:48:14;;;;;;;1.83;0.90;;;19.60;99.90;;;;;;5089134;28;20203;-81
2022/09/16 10:50:56;;;;;;;1.58;1.00;;;19.60;99.90;;;;;;5077803;28;20198;-81
2022/09/16 10:53:33;;;;;;;3.05;1.08;;;19.50;99.90;;;;;;5083195;28;20260;-82
2022/09/16 10:56:06;;;;;;;1.77;0.90;;;19.50;99.90;;;;;;5093606;28;20218;-81
2022/09/16 10:58:37;;;;;;;3.40;1.20;;;19.50;99.90;;;;;;5091757;28;20191;-82
2022/09/16 11:01:25;;;;;;;2.03;0.90;;;19.50;99.90;;;;;;5093683;28;20195;-81
2022/09/16 11:04:23;;;;;;;1.77;0.90;;;19.40;99.90;;;;;;5093699;28;20199;-82
2022/09/16 11:07:04;;;;;;;2.25;1.00;;;19.40;99.90;;;;;;5088163;28;20205;-81
2022/09/16 11:09:43;;;;;;;1.60;1.10;;;19.30;99.90;;;;;;5073818;28;20202;-82
2022/09/16 11:12:41;;;;;;;4.03;1.10;;;19.30;99.90;;;;;;5073572;28;20206;-82
2022/09/16 11:15:21;;;;;;;1.63;0.88;;;19.20;99.90;;;;;;5073731;28;20255;-81
2022/09/16 11:18:04;;;;;;;2.50;1.00;;;19.20;99.90;;;;;;5075477;28;20204;-81
2022/09/16 11:20:57;;;;;;;2.25;0.95;;;19.20;99.90;;;;;;5079470;28;20628;-81
2022/09/16 11:23:40;;;;;;;1.42;0.77;;;19.20;99.90;;;;;;5093249;28;20214;-80
2022/09/16 11:26:22;;;;;;;2.03;0.82;;;19.10;99.90;;;;;;5073740;28;20196;-80
2022/09/16 11:29:04;;;;;;;4.30;0.95;;;19.10;99.90;;;;;;5080863;28;20654;-81
2022/09/16 11:31:43;;;;;;;3.00;0.75;;;19.10;99.90;;;;;;5094068;28;20256;-81
2022/09/16 11:34:33;;;;;;;1.55;0.70;;;19.10;99.90;;;;;;5093498;28;20219;-81
2022/09/16 11:37:16;;;;;;;1.77;0.60;;;19.10;99.90;;;;;;5093673;28;20191;-80
2022/09/16 11:40:10;;;;;;;1.48;0.68;;;19.10;99.90;;;;;;5073351;28;20258;-80
2022/09/16 11:42:44;;;;;;;2.05;0.60;;;19.10;99.90;;;;;;5073554;28;20257;-82
2022/09/16 11:45:29;;;;;;;1.98;0.80;;;19.10;99.90;;;;;;5073284;28;20244;-80
2022/09/16 11:48:24;;;;;;;0.88;0.60;;;19.20;99.90;;;;;;5072996;28;20196;-79
2022/09/16 11:51:02;;;;;;;2.33;0.50;;;19.20;99.90;;;;;;5062441;28;20213;-81
2022/09/16 11:53:53;;;;;;;1.80;0.65;;;19.20;99.80;;;;;;5083523;28;20593;-81
2022/09/16 11:56:46;;;;;;;2.38;0.77;;;19.20;99.50;;;;;;5079242;28;20223;-82
2022/09/16 11:59:24;;;;;;;1.77;0.60;;;19.20;98.50;;;;;;5085927;28;20232;-81
2022/09/16 12:02:00;;;;;;;1.02;0.60;;;19.20;98.20;;;;;;5075951;28;20442;-82
2022/09/16 12:04:34;;;;;;;2.55;0.80;;;19.30;98.20;;;;;;5081138;28;20732;-83
2022/09/16 12:07:12;;;;;;;1.98;0.80;;;19.20;97.40;;;;;;5080012;28;20213;-81
2022/09/16 12:09:52;;;;;;;1.88;0.52;;;19.30;98.50;;;;;;5096352;28;20206;-83
2022/09/16 12:12:26;;;;;;;3.05;0.60;;;19.30;99.70;;;;;;5094748;28;20678;-81
2022/09/16 12:15:01;;;;;;;2.30;0.80;;;19.20;99.90;;;;;;5095997;28;20215;-81
2022/09/16 12:17:33;;;;;;;3.28;0.98;;;19.20;99.90;;;;;;5096793;28;20671;-83
2022/09/16 12:20:15;;;;;;;1.40;0.60;;;19.20;99.60;;;;;;5091892;28;20211;-82
2022/09/16 12:22:49;;;;;;;2.55;0.68;;;19.20;99.40;;;;;;5076714;28;20199;-83
2022/09/16 12:25:28;;;;;;;1.73;0.50;;;19.20;98.40;;;;;;5076729;28;20195;-83
2022/09/16 12:28:05;;;;;;;2.92;0.60;;;19.20;97.40;;;;;;5076479;28;20198;-84
2022/09/16 12:30:40;;;;;;;2.88;0.77;;;19.20;97.60;;;;;;5076907;28;20188;-83
2022/09/16 12:33:27;;;;;;;3.28;0.80;;;19.20;96.40;;;;;;5076408;28;20200;-83
2022/09/16 12:36:04;;;;;;;4.30;0.88;;;19.30;94.80;;;;;;5076626;28;20230;-83
2022/09/16 12:38:34;;;;;;;1.58;0.60;;;19.40;94.70;;;;;;5075320;28;20199;-82
2022/09/16 12:41:26;;;;;;;1.83;0.70;;;19.40;94.80;;;;;;5073161;28;20192;-83
2022/09/16 12:44:27;;;;;;;1.80;0.60;;;19.40;94.70;;;;;;5102915;28;20227;-84
2022/09/16 12:47:20;;;;;;;3.50;0.70;;;19.40;94.00;;;;;;5084028;28;20199;-83
2022/09/16 12:50:17;;;;;;;2.45;0.90;;;19.40;94.30;;;;;;5081420;28;20606;-84
2022/09/16 12:53:12;;;;;;;2.97;0.60;;;19.40;93.70;;;;;;5084106;28;20709;-83
2022/09/16 12:56:01;;;;;;;1.10;0.50;;;19.40;93.80;;;;;;5093428;28;20230;-84
2022/09/16 12:59:05;;;;;;;3.35;0.60;;;19.40;94.30;;;;;;5095208;28;20187;-84
2022/09/16 13:01:41;;;;;;;2.30;0.55;;;19.40;94.50;;;;;;5082167;28;20651;-84
2022/09/16 13:04:17;;;;;;;2.85;0.70;;;19.40;94.60;;;;;;5076751;28;20199;-83
2022/09/16 13:06:51;;;;;;;1.70;0.95;;;19.30;94.80;;;;;;5092616;28;20199;-84
2022/09/16 13:09:30;;;;;;;1.02;0.50;;;19.30;95.40;;;;;;5095164;28;20669;-83
2022/09/16 13:12:04;;;;;;;2.85;0.73;;;19.30;95.10;;;;;;5096014;28;20195;-82
2022/09/16 13:14:53;;;;;;;0.90;0.50;;;19.30;95.50;;;;;;5077332;28;20233;-83
2022/09/16 13:17:32;;;;;;;2.67;0.52;;;19.30;95.50;;;;;;5094729;28;20256;-84
2022/09/16 13:20:08;;;;;;;1.92;0.57;;;19.30;95.80;;;;;;5089318;28;20199;-83
2022/09/16 13:22:47;;;;;;;1.83;0.57;;;19.30;96.20;;;;;;5091457;28;20286;-83
2022/09/16 13:25:24;;;;;;;1.02;0.60;;;19.20;96.40;;;;;;5094533;28;20217;-82
2022/09/16 13:28:02;;;;;;;1.75;0.70;;;19.20;96.80;;;;;;5078503;28;20203;-82
2022/09/16 13:30:39;;;;;;;2.30;0.50;;;19.20;97.10;;;;;;5088809;28;20603;-82
2022/09/16 13:33:30;;;;;;;2.58;0.70;;;19.20;97.20;;;;;;5072872;28;20293;-82
2022/09/16 13:36:33;;;;;;;2.42;0.80;;;19.10;98.30;;;;;;5075923;28;20591;-83